TimeCST,TemperatureF,Dew PointF,Humidity,Sea Level PressureIn,VisibilityMPH,Wind Direction,Wind SpeedMPH,Gust SpeedMPH,PrecipitationIn,Events,Conditions,WindDirDegrees,DateUTC
12:54 AM,28.0,25.0,88,30.26,10.0,SW,4.6,-,N/A,,Clear,220,2013-11-08 06:54:00
1:54 AM,30.0,25.0,82,30.22,10.0,SE,6.9,-,N/A,,Clear,130,2013-11-08 07:54:00
2:54 AM,32.0,28.0,85,30.19,10.0,SE,5.8,-,N/A,,Clear,140,2013-11-08 08:54:00
3:54 AM,32.0,27.0,82,30.17,10.0,South,4.6,-,N/A,,Clear,180,2013-11-08 09:54:00
4:54 AM,35.1,28.0,76,30.12,10.0,SE,8.1,-,N/A,,Clear,130,2013-11-08 10:54:00
5:54 AM,36.0,28.0,73,30.10,10.0,SE,9.2,-,N/A,,Clear,140,2013-11-08 11:54:00
6:54 AM,37.9,27.0,65,30.05,10.0,SE,13.8,-,N/A,,Clear,140,2013-11-08 12:54:00
7:54 AM,39.0,28.0,65,30.01,10.0,SE,15.0,-,N/A,,Clear,140,2013-11-08 13:54:00
8:54 AM,42.1,28.9,60,29.96,10.0,SSE,17.3,24.2,N/A,,Clear,150,2013-11-08 14:54:00
9:54 AM,50.0,32.0,50,29.91,10.0,SSE,20.7,27.6,N/A,,Clear,160,2013-11-08 15:54:00
10:54 AM,54.0,32.0,43,29.85,10.0,South,21.9,29.9,N/A,,Clear,170,2013-11-08 16:54:00
11:54 AM,57.0,34.0,42,29.80,10.0,South,23.0,33.4,N/A,,Clear,170,2013-11-08 17:54:00
12:54 PM,60.1,34.0,38,29.75,10.0,SSW,21.9,33.4,N/A,,Clear,200,2013-11-08 18:54:00
1:54 PM,62.1,34.0,35,29.72,10.0,South,18.4,33.4,N/A,,Clear,180,2013-11-08 19:54:00
2:54 PM,62.1,34.0,35,29.72,10.0,South,13.8,24.2,N/A,,Clear,190,2013-11-08 20:54:00
3:54 PM,60.1,34.0,38,29.73,10.0,SSW,12.7,20.7,N/A,,Clear,200,2013-11-08 21:54:00
4:54 PM,57.9,36.0,44,29.74,10.0,SW,8.1,-,N/A,,Clear,220,2013-11-08 22:54:00
5:54 PM,54.0,37.0,53,29.76,10.0,South,6.9,-,N/A,,Clear,190,2013-11-08 23:54:00
6:54 PM,54.0,37.9,55,29.80,10.0,West,8.1,-,N/A,,Clear,260,2013-11-09 00:54:00
7:54 PM,51.1,37.9,61,29.82,10.0,WSW,9.2,-,N/A,,Clear,250,2013-11-09 01:54:00
8:54 PM,48.0,37.0,66,29.85,10.0,WSW,9.2,-,N/A,,Clear,240,2013-11-09 02:54:00
9:54 PM,46.0,36.0,68,29.88,10.0,WSW,8.1,-,N/A,,Clear,250,2013-11-09 03:54:00
10:54 PM,44.1,35.1,71,29.88,10.0,WSW,8.1,-,N/A,,Clear,250,2013-11-09 04:54:00
11:54 PM,39.9,33.1,77,29.89,10.0,SW,6.9,-,N/A,,Clear,220,2013-11-09 05:54:00